Simcoe, Canada
Current Conditions -  °F | °C
As of 5:00 PM on Thursday 27 Nov 2014 (Local Time) from CYHM Reporting Station
Snow Showers Snow Showers  
Wind Chill: 27°   Ceiling: 3400
Heat Index: 32°   Visibility: 6mi
Dew Point: 27°   Wind: 5mph
Humidity: 80%   Direction: 280°W
Pressure: 30.06"   Gusts: NA
Location:  42.84°N, 80.31°W
Report Text: CYHM 272200Z 28004KT 6SM -SHSN FEW016 SCT026 OVC034 M00/M03 A3006 RMK SF1SC3SC4 SLP190
Loading
Personal Weather Stations






























Interactive Weather Map New forecast layout! Learn more

10-Day Weather Forecast

Advertisements
Track Severe Weather on mobile